Time;durP1;ratioP1;P1;durP2;ratioP2;P2;SDS_P1;SDS_P2;PMS_P1;PMS_P2;Temp;Humidity;BMP_temperature;BMP_pressure;BME280_temperature;BME280_humidity;BME280_pressure;Samples;Min_cycle;Max_cycle;Signal;HPM_P1;HPM_P2
2020/12/08 00:01:03;;;;;;;2.40;2.20;;;;;;;19.02;48.90;98951.27;;;;-58
2020/12/08 00:04:03;;;;;;;2.37;2.17;;;;;;;19.00;48.85;98944.38;;;;-58
2020/12/08 00:07:03;;;;;;;2.28;2.08;;;;;;;18.98;48.93;98947.90;;;;-58
2020/12/08 00:10:03;;;;;;;2.26;2.03;;;;;;;18.96;48.92;98944.30;;;;-57
2020/12/08 00:13:03;;;;;;;2.41;2.21;;;;;;;18.94;48.89;98944.23;;;;-58
2020/12/08 00:16:03;;;;;;;2.13;1.99;;;;;;;18.92;48.89;98940.87;;;;-58
2020/12/08 00:19:05;;;;;;;2.39;2.19;;;;;;;18.91;48.87;98940.56;;;;-57
2020/12/08 00:22:03;;;;;;;2.29;2.09;;;;;;;18.88;48.86;98934.53;;;;-58
2020/12/08 00:25:03;;;;;;;2.50;2.30;;;;;;;18.87;48.93;98939.48;;;;-58
2020/12/08 00:28:03;;;;;;;2.45;2.25;;;;;;;18.85;48.94;98937.25;;;;-59
2020/12/08 00:31:03;;;;;;;2.50;2.30;;;;;;;18.83;48.92;98927.88;;;;-58
2020/12/08 00:34:03;;;;;;;2.49;2.27;;;;;;;18.82;48.89;98930.15;;;;-58
2020/12/08 00:37:03;;;;;;;2.16;1.96;;;;;;;18.78;48.92;98926.64;;;;-57
2020/12/08 00:40:03;;;;;;;2.40;2.20;;;;;;;18.77;48.93;98930.45;;;;-58
2020/12/08 00:43:03;;;;;;;2.48;2.27;;;;;;;18.75;48.90;98922.84;;;;-58
2020/12/08 00:46:03;;;;;;;2.23;2.06;;;;;;;18.74;48.95;98928.86;;;;-57
2020/12/08 00:49:05;;;;;;;2.43;2.23;;;;;;;18.72;48.89;98922.33;;;;-57
2020/12/08 00:52:03;;;;;;;2.23;2.03;;;;;;;18.70;48.94;98925.61;;;;-59
2020/12/08 00:55:03;;;;;;;2.31;2.10;;;;;;;18.68;48.90;98924.41;;;;-58
2020/12/08 00:58:03;;;;;;;2.29;2.09;;;;;;;18.66;48.91;98923.88;;;;-59
2020/12/08 01:01:03;;;;;;;2.34;2.14;;;;;;;18.65;48.96;98925.01;;;;-58
2020/12/08 01:04:03;;;;;;;2.34;2.14;;;;;;;18.64;48.90;98924.72;;;;-58
2020/12/08 01:07:03;;;;;;;2.26;2.00;;;;;;;18.61;48.91;98928.88;;;;-59
2020/12/08 01:10:03;;;;;;;2.32;2.12;;;;;;;18.60;48.91;98928.19;;;;-58
2020/12/08 01:13:03;;;;;;;2.29;2.09;;;;;;;18.58;48.93;98926.90;;;;-56
2020/12/08 01:16:03;;;;;;;2.29;2.09;;;;;;;18.56;48.93;98924.34;;;;-58
2020/12/08 01:19:03;;;;;;;2.31;2.11;;;;;;;18.56;48.98;98927.11;;;;-58
2020/12/08 01:22:03;;;;;;;2.35;2.17;;;;;;;18.55;48.93;98930.60;;;;-59
2020/12/08 01:25:03;;;;;;;2.35;2.15;;;;;;;18.53;48.92;98925.62;;;;-59
2020/12/08 01:28:03;;;;;;;2.23;2.03;;;;;;;18.51;48.97;98930.42;;;;-58
2020/12/08 01:31:03;;;;;;;2.25;2.05;;;;;;;18.50;48.95;98930.75;;;;-58
2020/12/08 01:34:03;;;;;;;2.23;2.03;;;;;;;18.49;48.96;98935.30;;;;-58
2020/12/08 01:37:03;;;;;;;2.42;2.22;;;;;;;18.47;48.96;98934.20;;;;-57
2020/12/08 01:40:03;;;;;;;2.39;2.19;;;;;;;18.46;48.97;98928.39;;;;-58
2020/12/08 01:43:03;;;;;;;2.21;2.01;;;;;;;18.44;49.04;98929.70;;;;-59
2020/12/08 01:46:03;;;;;;;2.09;1.99;;;;;;;18.43;48.86;98936.30;;;;-57
2020/12/08 01:49:03;;;;;;;2.21;2.02;;;;;;;18.41;48.92;98940.63;;;;-59
2020/12/08 01:52:03;;;;;;;2.41;2.21;;;;;;;18.40;48.95;98941.11;;;;-58
2020/12/08 01:55:03;;;;;;;2.34;2.14;;;;;;;18.39;48.97;98937.89;;;;-58
2020/12/08 01:58:03;;;;;;;2.26;2.11;;;;;;;18.37;49.03;98937.92;;;;-58
2020/12/08 02:01:03;;;;;;;2.22;2.05;;;;;;;18.37;48.98;98941.42;;;;-57
2020/12/08 02:04:03;;;;;;;2.21;2.01;;;;;;;18.34;49.02;98939.42;;;;-57
2020/12/08 02:07:03;;;;;;;2.28;2.08;;;;;;;18.32;48.99;98932.80;;;;-57
2020/12/08 02:10:03;;;;;;;2.91;2.06;;;;;;;18.31;48.96;98924.36;;;;-59
2020/12/08 02:13:03;;;;;;;2.22;2.02;;;;;;;18.30;48.95;98921.30;;;;-58
2020/12/08 02:16:03;;;;;;;2.39;2.19;;;;;;;18.29;48.98;98918.64;;;;-58
2020/12/08 02:19:03;;;;;;;2.01;1.90;;;;;;;18.27;48.98;98912.44;;;;-58
2020/12/08 02:22:03;;;;;;;2.25;2.05;;;;;;;18.26;48.97;98918.92;;;;-58
2020/12/08 02:25:04;;;;;;;2.15;2.00;;;;;;;18.26;48.93;98915.19;;;;-58
2020/12/08 02:28:03;;;;;;;2.00;1.90;;;;;;;18.23;49.01;98915.39;;;;-58
2020/12/08 02:31:03;;;;;;;2.03;1.93;;;;;;;18.22;48.91;98914.18;;;;-58
2020/12/08 02:34:03;;;;;;;2.04;1.94;;;;;;;18.21;49.00;98913.95;;;;-58
2020/12/08 02:37:03;;;;;;;3.19;2.13;;;;;;;18.20;49.00;98912.03;;;;-58
2020/12/08 02:40:03;;;;;;;2.32;2.12;;;;;;;18.18;48.92;98905.25;;;;-58
2020/12/08 02:43:03;;;;;;;2.14;2.03;;;;;;;18.17;48.99;98906.54;;;;-57
2020/12/08 02:46:03;;;;;;;2.19;2.07;;;;;;;18.17;48.97;98903.80;;;;-58
2020/12/08 02:49:03;;;;;;;2.30;2.10;;;;;;;18.16;48.91;98899.02;;;;-57
2020/12/08 02:52:03;;;;;;;2.16;1.89;;;;;;;18.15;48.85;98895.23;;;;-58
2020/12/08 02:55:03;;;;;;;2.23;2.03;;;;;;;18.13;48.96;98894.44;;;;-58
2020/12/08 02:58:03;;;;;;;2.15;1.98;;;;;;;18.13;49.03;98891.78;;;;-57
2020/12/08 03:01:03;;;;;;;2.20;2.00;;;;;;;18.11;49.02;98891.48;;;;-58
2020/12/08 03:04:03;;;;;;;2.37;2.17;;;;;;;18.10;49.01;98888.50;;;;-58
2020/12/08 03:07:03;;;;;;;1.99;1.89;;;;;;;18.09;48.96;98890.27;;;;-57
2020/12/08 03:10:03;;;;;;;2.22;2.02;;;;;;;18.08;48.93;98890.63;;;;-58
2020/12/08 03:13:03;;;;;;;2.22;2.02;;;;;;;18.08;48.92;98891.94;;;;-57
2020/12/08 03:16:03;;;;;;;2.29;2.09;;;;;;;18.07;48.98;98898.98;;;;-59
2020/12/08 03:19:03;;;;;;;2.30;2.10;;;;;;;18.06;48.92;98900.62;;;;-59
2020/12/08 03:22:03;;;;;;;2.16;2.02;;;;;;;18.04;48.93;98899.52;;;;-58
2020/12/08 03:25:03;;;;;;;2.10;1.99;;;;;;;18.03;48.88;98898.72;;;;-58
2020/12/08 03:28:03;;;;;;;2.24;2.04;;;;;;;18.03;48.99;98908.03;;;;-58
2020/12/08 03:31:03;;;;;;;2.62;1.96;;;;;;;18.02;48.96;98908.95;;;;-57
2020/12/08 03:34:03;;;;;;;2.16;2.01;;;;;;;18.01;48.97;98915.93;;;;-57
2020/12/08 03:37:03;;;;;;;2.31;2.11;;;;;;;18.01;48.93;98918.11;;;;-58
2020/12/08 03:40:03;;;;;;;2.29;2.09;;;;;;;17.99;48.95;98915.78;;;;-57
2020/12/08 03:43:03;;;;;;;2.32;2.13;;;;;;;17.97;49.00;98910.87;;;;-57
2020/12/08 03:46:03;;;;;;;2.41;2.21;;;;;;;17.96;49.03;98915.26;;;;-59
2020/12/08 03:49:03;;;;;;;2.14;2.02;;;;;;;17.96;48.96;98910.97;;;;-59
2020/12/08 03:52:03;;;;;;;2.32;2.12;;;;;;;17.94;49.01;98909.43;;;;-57
2020/12/08 03:55:03;;;;;;;2.04;1.94;;;;;;;17.93;48.98;98905.82;;;;-58
2020/12/08 03:58:03;;;;;;;2.11;2.00;;;;;;;17.93;49.00;98902.18;;;;-59
2020/12/08 04:01:03;;;;;;;2.29;2.09;;;;;;;17.92;48.98;98898.84;;;;-57
2020/12/08 04:04:03;;;;;;;2.08;1.91;;;;;;;17.92;48.88;98900.81;;;;-59
2020/12/08 04:07:03;;;;;;;1.96;1.86;;;;;;;17.90;48.99;98894.89;;;;-58
2020/12/08 04:10:03;;;;;;;2.21;2.01;;;;;;;17.89;48.97;98898.33;;;;-58
2020/12/08 04:13:03;;;;;;;2.28;2.08;;;;;;;17.88;48.96;98896.78;;;;-58
2020/12/08 04:16:03;;;;;;;2.31;2.11;;;;;;;17.88;48.90;98901.81;;;;-58
2020/12/08 04:19:03;;;;;;;2.23;2.00;;;;;;;17.86;48.94;98900.69;;;;-58
2020/12/08 04:22:03;;;;;;;2.10;1.99;;;;;;;17.86;48.96;98904.99;;;;-58
2020/12/08 04:25:03;;;;;;;2.10;1.95;;;;;;;17.85;48.99;98912.23;;;;-56
2020/12/08 04:28:03;;;;;;;2.11;2.01;;;;;;;17.85;48.99;98913.21;;;;-57
2020/12/08 04:31:03;;;;;;;1.97;1.87;;;;;;;17.84;49.04;98908.34;;;;-57
2020/12/08 04:34:03;;;;;;;2.29;2.09;;;;;;;17.83;49.00;98894.60;;;;-57
2020/12/08 04:37:03;;;;;;;2.11;2.00;;;;;;;17.82;49.00;98892.55;;;;-59
2020/12/08 04:40:03;;;;;;;2.20;2.00;;;;;;;17.81;49.02;98900.02;;;;-57
2020/12/08 04:43:03;;;;;;;2.25;2.09;;;;;;;17.81;49.01;98894.84;;;;-58
2020/12/08 04:46:03;;;;;;;2.39;2.19;;;;;;;17.80;48.98;98892.80;;;;-58
2020/12/08 04:49:03;;;;;;;2.10;2.00;;;;;;;17.79;48.97;98885.12;;;;-58
2020/12/08 04:52:03;;;;;;;2.14;2.01;;;;;;;17.78;48.92;98880.83;;;;-57
2020/12/08 04:55:03;;;;;;;2.44;2.24;;;;;;;17.77;48.95;98886.03;;;;-57
2020/12/08 04:58:03;;;;;;;2.24;2.04;;;;;;;17.76;49.00;98896.83;;;;-57
2020/12/08 05:01:03;;;;;;;2.39;2.19;;;;;;;17.75;49.03;98909.47;;;;-58
2020/12/08 05:04:03;;;;;;;2.20;2.00;;;;;;;17.74;48.91;98921.39;;;;-58
2020/12/08 05:07:03;;;;;;;2.21;2.03;;;;;;;17.73;49.01;98918.33;;;;-58
2020/12/08 05:10:03;;;;;;;2.33;2.13;;;;;;;17.73;48.97;98916.55;;;;-57
2020/12/08 05:13:03;;;;;;;2.45;2.25;;;;;;;17.73;48.99;98920.13;;;;-58
2020/12/08 05:16:03;;;;;;;1.95;1.85;;;;;;;17.71;48.96;98921.34;;;;-57
2020/12/08 05:19:03;;;;;;;2.01;1.91;;;;;;;17.71;49.00;98924.76;;;;-58
2020/12/08 05:22:03;;;;;;;1.90;1.80;;;;;;;17.71;49.02;98914.78;;;;-58
2020/12/08 05:25:03;;;;;;;2.03;1.91;;;;;;;17.70;49.02;98902.07;;;;-59
2020/12/08 05:28:03;;;;;;;2.19;1.99;;;;;;;17.68;49.09;98892.97;;;;-59
2020/12/08 05:31:03;;;;;;;2.21;2.01;;;;;;;17.68;49.02;98891.99;;;;-58
2020/12/08 05:34:03;;;;;;;2.35;2.15;;;;;;;17.67;49.03;98896.61;;;;-58
2020/12/08 05:37:03;;;;;;;2.20;2.00;;;;;;;17.66;48.96;98899.36;;;;-59
2020/12/08 05:40:04;;;;;;;2.36;2.16;;;;;;;17.65;48.93;98899.79;;;;-59
2020/12/08 05:43:03;;;;;;;2.32;2.12;;;;;;;17.65;48.85;98899.12;;;;-57
2020/12/08 05:46:03;;;;;;;2.27;2.07;;;;;;;17.64;48.87;98900.61;;;;-59
2020/12/08 05:49:03;;;;;;;2.37;2.17;;;;;;;17.63;49.06;98902.72;;;;-57
2020/12/08 05:52:03;;;;;;;2.35;2.15;;;;;;;17.63;48.98;98894.54;;;;-57
2020/12/08 05:55:03;;;;;;;2.23;2.03;;;;;;;17.63;49.00;98890.16;;;;-58
2020/12/08 05:58:03;;;;;;;2.30;2.10;;;;;;;17.61;48.92;98889.54;;;;-55
2020/12/08 06:01:03;;;;;;;2.18;2.08;;;;;;;17.61;49.06;98888.80;;;;-57
2020/12/08 06:04:03;;;;;;;2.39;2.19;;;;;;;17.59;48.92;98895.87;;;;-57
2020/12/08 06:07:03;;;;;;;2.30;2.10;;;;;;;17.59;49.04;98899.68;;;;-57
2020/12/08 06:10:03;;;;;;;12.19;8.30;;;;;;;17.42;45.86;98894.45;;;;-65
2020/12/08 06:13:03;;;;;;;9.00;8.10;;;;;;;17.34;45.90;98892.67;;;;-61
2020/12/08 06:16:03;;;;;;;11.03;9.63;;;;;;;17.19;44.66;98898.25;;;;-54
2020/12/08 06:19:03;;;;;;;12.11;10.91;;;;;;;16.91;43.82;98907.39;;;;-56
2020/12/08 06:22:03;;;;;;;13.01;11.51;;;;;;;16.71;43.50;98910.58;;;;-52
2020/12/08 06:25:03;;;;;;;12.83;11.55;;;;;;;16.66;44.20;98912.88;;;;-56
2020/12/08 06:28:03;;;;;;;14.07;10.41;;;;;;;16.80;44.86;98901.63;;;;-59
2020/12/08 06:31:03;;;;;;;10.89;8.91;;;;;;;16.91;45.60;98900.83;;;;-59
2020/12/08 06:34:03;;;;;;;9.50;8.01;;;;;;;16.99;45.91;98903.50;;;;-52
2020/12/08 06:37:03;;;;;;;10.19;7.47;;;;;;;17.07;46.23;98903.11;;;;-56
2020/12/08 06:40:03;;;;;;;7.17;6.47;;;;;;;17.14;46.43;98899.08;;;;-56
2020/12/08 06:43:03;;;;;;;9.63;6.31;;;;;;;17.20;46.70;98892.23;;;;-56
2020/12/08 06:46:03;;;;;;;6.36;5.76;;;;;;;17.26;46.76;98898.27;;;;-53
2020/12/08 06:49:03;;;;;;;5.79;5.05;;;;;;;17.32;47.07;98894.46;;;;-52
2020/12/08 06:52:03;;;;;;;4.80;4.40;;;;;;;17.38;47.07;98899.33;;;;-52
2020/12/08 06:55:03;;;;;;;4.61;4.13;;;;;;;17.45;47.06;98896.35;;;;-51
2020/12/08 06:58:03;;;;;;;4.26;3.86;;;;;;;17.50;47.17;98898.73;;;;-51
2020/12/08 07:01:03;;;;;;;4.51;3.53;;;;;;;17.55;47.24;98906.77;;;;-59
2020/12/08 07:04:03;;;;;;;3.59;3.29;;;;;;;17.61;47.30;98919.19;;;;-51
2020/12/08 07:07:03;;;;;;;3.31;3.01;;;;;;;17.66;47.47;98919.95;;;;-51
2020/12/08 07:10:03;;;;;;;3.10;2.85;;;;;;;17.71;47.46;98918.27;;;;-56
2020/12/08 07:13:03;;;;;;;3.53;2.72;;;;;;;17.76;47.61;98922.02;;;;-59
2020/12/08 07:16:03;;;;;;;2.92;2.69;;;;;;;17.80;47.60;98931.45;;;;-52
2020/12/08 07:19:03;;;;;;;3.03;2.59;;;;;;;17.84;47.71;98940.67;;;;-57
2020/12/08 07:22:08;;;;;;;2.79;2.59;;;;;;;17.87;47.70;98943.98;;;;-60
2020/12/08 07:25:03;;;;;;;2.68;2.48;;;;;;;17.91;47.85;98941.48;;;;-52
2020/12/08 07:28:03;;;;;;;2.60;2.40;;;;;;;17.92;47.90;98947.72;;;;-58
2020/12/08 07:31:03;;;;;;;2.65;2.45;;;;;;;17.94;47.83;98958.88;;;;-60
2020/12/08 07:34:03;;;;;;;2.53;2.33;;;;;;;17.96;47.86;98967.69;;;;-51
2020/12/08 07:37:03;;;;;;;3.09;2.42;;;;;;;17.97;47.83;98968.88;;;;-58
2020/12/08 07:40:03;;;;;;;2.35;2.15;;;;;;;17.98;47.87;98971.89;;;;-57
2020/12/08 07:43:03;;;;;;;2.75;2.55;;;;;;;17.98;47.89;98974.80;;;;-58
2020/12/08 07:46:03;;;;;;;2.69;2.19;;;;;;;18.00;47.91;98983.29;;;;-57
2020/12/08 07:49:03;;;;;;;2.37;2.17;;;;;;;18.00;47.91;98982.48;;;;-60
2020/12/08 07:52:03;;;;;;;2.31;2.11;;;;;;;18.01;47.86;98981.41;;;;-60
2020/12/08 07:55:03;;;;;;;2.42;2.22;;;;;;;18.00;47.91;98987.43;;;;-60
2020/12/08 07:58:03;;;;;;;2.43;2.23;;;;;;;18.01;47.91;98991.20;;;;-60
2020/12/08 08:01:03;;;;;;;2.71;2.03;;;;;;;18.01;47.87;98985.62;;;;-57
2020/12/08 08:04:03;;;;;;;2.38;2.18;;;;;;;18.01;47.92;98987.23;;;;-57
2020/12/08 08:07:03;;;;;;;2.39;2.19;;;;;;;18.00;47.96;98986.37;;;;-57
2020/12/08 08:10:03;;;;;;;2.30;2.10;;;;;;;18.00;47.98;98988.96;;;;-56
2020/12/08 08:13:03;;;;;;;2.47;2.27;;;;;;;18.00;47.98;98981.68;;;;-57
2020/12/08 08:16:03;;;;;;;2.31;2.11;;;;;;;18.00;47.94;98989.38;;;;-59
2020/12/08 08:19:03;;;;;;;2.43;2.23;;;;;;;18.00;48.03;99010.77;;;;-60
2020/12/08 08:22:03;;;;;;;2.21;2.01;;;;;;;17.97;48.08;99019.47;;;;-60
2020/12/08 08:25:03;;;;;;;2.26;2.09;;;;;;;17.98;48.01;99017.28;;;;-59
2020/12/08 08:28:03;;;;;;;2.63;2.20;;;;;;;17.98;47.96;99009.57;;;;-60
2020/12/08 08:31:03;;;;;;;3.37;2.50;;;;;;;17.99;48.26;99005.42;;;;-59
2020/12/08 08:34:03;;;;;;;2.51;2.31;;;;;;;18.00;48.31;99004.77;;;;-56
2020/12/08 08:37:03;;;;;;;4.93;2.51;;;;;;;17.99;48.07;99006.41;;;;-51
2020/12/08 08:40:03;;;;;;;3.00;2.15;;;;;;;17.98;48.17;99006.81;;;;-51
2020/12/08 08:43:03;;;;;;;2.37;2.17;;;;;;;17.97;48.00;99009.19;;;;-51
2020/12/08 08:46:03;;;;;;;2.10;2.00;;;;;;;17.97;48.00;99002.44;;;;-51
2020/12/08 08:49:03;;;;;;;2.99;2.22;;;;;;;17.96;48.02;98998.80;;;;-51
2020/12/08 08:52:03;;;;;;;2.69;2.38;;;;;;;17.95;48.03;98997.43;;;;-51
2020/12/08 08:55:03;;;;;;;2.39;2.19;;;;;;;17.94;48.05;98997.44;;;;-51
2020/12/08 08:58:03;;;;;;;2.40;2.20;;;;;;;17.94;47.95;99003.13;;;;-52
2020/12/08 09:01:03;;;;;;;5.15;2.61;;;;;;;17.94;47.96;99003.55;;;;-51
2020/12/08 09:04:03;;;;;;;4.05;2.33;;;;;;;17.94;48.02;99003.38;;;;-54
2020/12/08 09:07:03;;;;;;;6.83;2.58;;;;;;;17.96;48.19;98995.31;;;;-53
2020/12/08 09:10:03;;;;;;;3.50;2.75;;;;;;;17.98;47.60;99001.62;;;;-53
2020/12/08 09:13:03;;;;;;;4.49;2.65;;;;;;;18.00;47.85;99011.91;;;;-57
2020/12/08 09:16:03;;;;;;;2.51;2.31;;;;;;;18.01;47.79;99010.34;;;;-51
2020/12/08 09:19:03;;;;;;;3.01;2.42;;;;;;;18.01;47.85;99004.98;;;;-50
2020/12/08 09:22:03;;;;;;;2.63;2.43;;;;;;;18.02;47.97;99003.62;;;;-50
2020/12/08 09:25:03;;;;;;;2.73;2.47;;;;;;;18.02;47.93;98995.84;;;;-51
2020/12/08 09:28:03;;;;;;;6.45;2.39;;;;;;;18.06;48.11;98993.03;;;;-50
2020/12/08 09:31:03;;;;;;;3.63;2.48;;;;;;;18.07;48.45;98994.64;;;;-56
2020/12/08 09:34:03;;;;;;;3.49;2.51;;;;;;;18.09;48.46;98996.78;;;;-55
2020/12/08 09:37:03;;;;;;;2.65;2.40;;;;;;;18.12;48.60;98997.58;;;;-52
2020/12/08 09:40:03;;;;;;;4.61;2.21;;;;;;;18.15;48.96;98992.52;;;;-56
2020/12/08 09:43:03;;;;;;;3.19;2.44;;;;;;;18.18;48.94;98996.05;;;;-60
2020/12/08 09:46:03;;;;;;;2.60;2.19;;;;;;;18.23;48.93;98993.24;;;;-57
2020/12/08 09:49:03;;;;;;;3.06;2.45;;;;;;;18.27;48.88;98991.88;;;;-57
2020/12/08 09:52:03;;;;;;;2.91;2.20;;;;;;;18.33;49.03;98996.77;;;;-58
2020/12/08 09:55:03;;;;;;;3.33;2.33;;;;;;;18.38;48.99;99001.64;;;;-59
2020/12/08 09:58:03;;;;;;;2.41;2.21;;;;;;;18.41;48.92;98999.58;;;;-58
2020/12/08 10:01:03;;;;;;;2.51;2.30;;;;;;;18.45;48.97;99000.36;;;;-60
2020/12/08 10:04:03;;;;;;;2.32;2.12;;;;;;;18.51;49.20;98992.55;;;;-58
2020/12/08 10:07:03;;;;;;;3.35;2.31;;;;;;;18.53;48.97;98987.59;;;;-57
2020/12/08 10:10:03;;;;;;;3.23;2.24;;;;;;;18.58;49.09;98986.86;;;;-58
2020/12/08 10:13:03;;;;;;;2.63;2.17;;;;;;;18.62;49.03;98983.50;;;;-58
2020/12/08 10:16:03;;;;;;;2.32;2.09;;;;;;;18.66;49.08;98994.23;;;;-52
2020/12/08 10:19:03;;;;;;;2.51;2.11;;;;;;;18.70;49.02;99000.41;;;;-51
2020/12/08 10:22:03;;;;;;;3.67;2.09;;;;;;;18.74;49.16;99008.32;;;;-53
2020/12/08 10:25:03;;;;;;;2.37;2.17;;;;;;;18.76;48.69;99003.48;;;;-61
2020/12/08 10:28:03;;;;;;;2.66;2.14;;;;;;;18.78;48.58;99005.56;;;;-61
2020/12/08 10:31:03;;;;;;;4.93;2.32;;;;;;;18.78;48.50;99006.05;;;;-55
2020/12/08 10:34:03;;;;;;;3.45;2.91;;;;;;;18.73;46.99;99007.49;;;;-57
2020/12/08 10:37:03;;;;;;;3.99;2.89;;;;;;;18.70;46.94;99006.42;;;;-61
2020/12/08 10:40:02;;;;;;;4.04;2.85;;;;;;;18.78;47.66;99004.06;;;;-47
2020/12/08 10:43:03;;;;;;;4.04;2.75;;;;;;;18.81;47.57;99000.52;;;;-58
2020/12/08 10:46:03;;;;;;;5.47;2.47;;;;;;;18.87;47.88;99000.52;;;;-51
2020/12/08 10:49:03;;;;;;;5.45;2.61;;;;;;;18.92;48.00;99001.02;;;;-56
2020/12/08 10:52:02;;;;;;;3.30;2.45;;;;;;;18.95;48.11;98998.88;;;;-61
2020/12/08 10:55:02;;;;;;;2.71;2.30;;;;;;;18.97;47.99;98992.25;;;;-49
2020/12/08 10:58:03;;;;;;;2.53;2.28;;;;;;;19.02;48.03;98987.65;;;;-56
2020/12/08 11:01:02;;;;;;;2.93;2.31;;;;;;;19.05;48.00;98989.70;;;;-56
2020/12/08 11:04:03;;;;;;;3.55;2.30;;;;;;;19.08;48.16;98988.02;;;;-57
2020/12/08 11:07:03;;;;;;;2.57;2.37;;;;;;;19.10;48.04;98988.89;;;;-59
2020/12/08 11:10:03;;;;;;;3.07;2.53;;;;;;;19.13;48.18;98986.41;;;;-60
2020/12/08 11:13:03;;;;;;;3.31;2.53;;;;;;;19.14;47.59;98984.61;;;;-52
2020/12/08 11:16:02;;;;;;;3.47;3.17;;;;;;;19.12;46.94;98986.60;;;;-60
2020/12/08 11:19:03;;;;;;;3.24;2.85;;;;;;;19.10;46.40;98981.75;;;;-62
2020/12/08 11:22:03;;;;;;;6.68;2.95;;;;;;;19.09;46.42;98981.91;;;;-52
2020/12/08 11:25:03;;;;;;;3.06;2.73;;;;;;;19.09;46.66;98979.48;;;;-54
2020/12/08 11:28:03;;;;;;;3.51;2.90;;;;;;;19.15;47.10;98980.84;;;;-59
2020/12/08 11:31:03;;;;;;;3.57;2.64;;;;;;;19.21;47.30;98985.86;;;;-58
2020/12/08 11:34:02;;;;;;;2.83;2.51;;;;;;;19.26;47.42;98994.39;;;;-56
2020/12/08 11:37:03;;;;;;;2.65;2.45;;;;;;;19.29;47.55;98990.28;;;;-56
2020/12/08 11:40:02;;;;;;;2.45;2.25;;;;;;;19.34;47.70;98988.73;;;;-58
2020/12/08 11:43:03;;;;;;;2.47;2.27;;;;;;;19.38;47.60;98984.37;;;;-52
2020/12/08 11:46:03;;;;;;;2.49;2.29;;;;;;;19.38;47.56;98988.13;;;;-56
2020/12/08 11:49:03;;;;;;;2.43;2.23;;;;;;;19.42;47.65;98992.92;;;;-55
2020/12/08 11:52:03;;;;;;;4.01;2.23;;;;;;;19.42;47.43;98992.98;;;;-50
2020/12/08 11:55:06;;;;;;;2.41;2.21;;;;;;;19.42;47.42;98996.90;;;;-50
2020/12/08 11:58:02;;;;;;;2.41;2.21;;;;;;;19.42;47.30;98996.83;;;;-50
2020/12/08 12:01:02;;;;;;;2.97;2.25;;;;;;;19.44;47.33;98995.08;;;;-56
2020/12/08 12:04:02;;;;;;;2.57;2.22;;;;;;;19.44;47.28;98991.02;;;;-56
2020/12/08 12:07:03;;;;;;;2.57;2.35;;;;;;;19.43;47.22;98993.06;;;;-56
2020/12/08 12:10:02;;;;;;;2.20;2.00;;;;;;;19.44;47.27;98991.65;;;;-56
2020/12/08 12:13:02;;;;;;;2.63;2.17;;;;;;;19.45;47.17;98997.02;;;;-56
2020/12/08 12:16:02;;;;;;;2.27;2.10;;;;;;;19.46;47.24;99003.24;;;;-50
2020/12/08 12:19:03;;;;;;;2.77;2.19;;;;;;;19.46;47.28;99002.99;;;;-50
2020/12/08 12:22:02;;;;;;;3.97;2.22;;;;;;;19.47;47.23;99003.66;;;;-56
2020/12/08 12:25:03;;;;;;;2.45;2.25;;;;;;;19.47;47.20;98998.77;;;;-55
2020/12/08 12:28:02;;;;;;;2.64;2.34;;;;;;;19.48;47.17;98989.88;;;;-51
2020/12/08 12:31:02;;;;;;;2.49;2.29;;;;;;;19.49;47.22;98995.24;;;;-51
2020/12/08 12:34:02;;;;;;;2.74;2.30;;;;;;;19.50;47.20;98996.44;;;;-51
2020/12/08 12:37:03;;;;;;;2.40;2.20;;;;;;;19.50;47.14;98994.08;;;;-51
2020/12/08 12:40:02;;;;;;;2.37;2.17;;;;;;;19.51;47.14;98994.80;;;;-51
2020/12/08 12:43:03;;;;;;;2.40;2.20;;;;;;;19.52;47.15;98993.73;;;;-51
2020/12/08 12:46:02;;;;;;;2.53;2.31;;;;;;;19.53;47.16;98993.05;;;;-52
2020/12/08 12:49:03;;;;;;;2.53;2.33;;;;;;;19.53;47.13;98988.09;;;;-53
2020/12/08 12:52:02;;;;;;;2.71;2.45;;;;;;;19.53;47.14;98982.25;;;;-52
2020/12/08 12:55:02;;;;;;;2.44;2.24;;;;;;;19.54;47.09;98972.63;;;;-53
2020/12/08 12:58:03;;;;;;;2.36;2.16;;;;;;;19.54;47.16;98976.52;;;;-53
2020/12/08 13:01:02;;;;;;;2.42;2.22;;;;;;;19.55;47.12;98981.91;;;;-53
2020/12/08 13:04:02;;;;;;;2.32;2.12;;;;;;;19.55;47.03;98981.23;;;;-52
2020/12/08 13:07:02;;;;;;;2.45;2.25;;;;;;;19.57;47.10;98985.02;;;;-52
2020/12/08 13:10:02;;;;;;;2.53;2.28;;;;;;;19.57;47.09;98983.55;;;;-52
2020/12/08 13:13:02;;;;;;;2.47;2.24;;;;;;;19.58;47.08;98979.81;;;;-52
2020/12/08 13:16:02;;;;;;;2.55;2.28;;;;;;;19.57;47.11;98979.02;;;;-52
2020/12/08 13:19:03;;;;;;;2.60;2.20;;;;;;;19.58;47.04;98976.72;;;;-52
2020/12/08 13:22:02;;;;;;;2.63;2.43;;;;;;;19.57;47.06;98975.35;;;;-52
2020/12/08 13:25:02;;;;;;;2.47;2.27;;;;;;;19.59;47.09;98978.80;;;;-52
2020/12/08 13:28:03;;;;;;;2.40;2.20;;;;;;;19.60;47.06;98983.19;;;;-52
2020/12/08 13:31:03;;;;;;;3.31;2.32;;;;;;;19.66;47.41;98980.88;;;;-52
2020/12/08 13:34:03;;;;;;;3.71;2.57;;;;;;;19.68;47.34;98990.66;;;;-58
2020/12/08 13:37:02;;;;;;;3.82;2.19;;;;;;;19.71;47.61;98989.84;;;;-55
2020/12/08 13:40:02;;;;;;;2.90;2.48;;;;;;;19.74;47.61;98984.98;;;;-52
2020/12/08 13:43:02;;;;;;;4.01;2.51;;;;;;;19.76;47.65;98980.41;;;;-56
2020/12/08 13:46:03;;;;;;;4.98;2.57;;;;;;;19.78;47.63;98980.36;;;;-56
2020/12/08 13:49:02;;;;;;;2.50;2.30;;;;;;;19.80;47.72;98980.91;;;;-52
2020/12/08 13:52:02;;;;;;;2.91;2.47;;;;;;;19.81;47.64;98979.67;;;;-55
2020/12/08 13:55:02;;;;;;;3.57;2.60;;;;;;;19.82;47.73;98990.13;;;;-56
2020/12/08 13:58:02;;;;;;;2.97;2.41;;;;;;;19.87;47.73;98995.65;;;;-53
2020/12/08 14:01:02;;;;;;;3.37;2.59;;;;;;;19.88;47.96;98991.96;;;;-58
2020/12/08 14:04:02;;;;;;;3.90;2.39;;;;;;;19.91;48.01;98984.68;;;;-58
2020/12/08 14:07:02;;;;;;;5.44;2.66;;;;;;;19.93;47.91;98982.11;;;;-54
2020/12/08 14:10:02;;;;;;;4.36;2.41;;;;;;;19.92;47.76;98986.28;;;;-53
2020/12/08 14:13:02;;;;;;;2.73;2.44;;;;;;;19.94;47.73;98988.27;;;;-53
2020/12/08 14:16:03;;;;;;;4.09;2.51;;;;;;;19.95;47.65;98986.31;;;;-52
2020/12/08 14:19:02;;;;;;;3.46;2.42;;;;;;;19.95;47.67;98988.90;;;;-52
2020/12/08 14:22:02;;;;;;;3.03;2.27;;;;;;;19.99;47.79;98997.37;;;;-53
2020/12/08 14:25:04;;;;;;;4.00;2.49;;;;;;;19.99;47.67;98999.90;;;;-53
2020/12/08 14:28:02;;;;;;;2.90;2.61;;;;;;;20.01;47.60;98996.52;;;;-54
2020/12/08 14:31:02;;;;;;;4.33;2.57;;;;;;;20.03;47.63;99000.30;;;;-51
2020/12/08 14:34:03;;;;;;;4.30;2.54;;;;;;;20.02;47.66;98999.41;;;;-52
2020/12/08 14:37:02;;;;;;;2.69;2.49;;;;;;;20.03;47.75;98997.85;;;;-49
2020/12/08 14:40:02;;;;;;;3.18;2.63;;;;;;;20.06;47.82;99003.39;;;;-53
2020/12/08 14:43:02;;;;;;;3.83;2.59;;;;;;;20.06;47.76;99009.00;;;;-57
2020/12/08 14:46:02;;;;;;;2.93;2.49;;;;;;;20.08;47.77;99013.11;;;;-53
2020/12/08 14:49:02;;;;;;;3.19;2.39;;;;;;;20.08;47.59;99009.47;;;;-52
2020/12/08 14:52:02;;;;;;;2.89;2.40;;;;;;;20.11;47.85;99010.55;;;;-63
2020/12/08 14:55:02;;;;;;;3.12;2.45;;;;;;;20.10;47.72;99007.23;;;;-53
2020/12/08 14:58:02;;;;;;;4.84;2.59;;;;;;;20.09;47.75;99016.29;;;;-51
2020/12/08 15:01:02;;;;;;;6.26;2.47;;;;;;;20.09;47.87;99022.62;;;;-60
2020/12/08 15:04:02;;;;;;;5.50;3.21;;;;;;;20.08;47.87;99020.83;;;;-54
2020/12/08 15:07:02;;;;;;;3.53;3.05;;;;;;;20.08;47.42;99034.67;;;;-56
2020/12/08 15:10:02;;;;;;;4.79;3.54;;;;;;;20.08;47.95;99038.48;;;;-50
2020/12/08 15:13:02;;;;;;;3.93;3.40;;;;;;;20.10;47.72;99041.88;;;;-58
2020/12/08 15:16:02;;;;;;;6.61;3.11;;;;;;;20.12;47.52;99045.08;;;;-51
2020/12/08 15:19:02;;;;;;;3.15;2.85;;;;;;;20.11;47.78;99044.39;;;;-57
2020/12/08 15:22:02;;;;;;;3.98;2.67;;;;;;;20.09;47.72;99054.33;;;;-54
2020/12/08 15:25:02;;;;;;;3.76;2.79;;;;;;;20.12;47.76;99054.62;;;;-57
2020/12/08 15:28:02;;;;;;;3.02;2.60;;;;;;;20.11;47.79;99060.00;;;;-52
2020/12/08 15:31:02;;;;;;;5.15;2.70;;;;;;;20.11;47.73;99061.72;;;;-59
2020/12/08 15:34:02;;;;;;;2.99;2.59;;;;;;;20.12;47.84;99065.90;;;;-58
2020/12/08 15:37:03;;;;;;;3.23;2.67;;;;;;;20.13;47.89;99059.95;;;;-57
2020/12/08 15:40:02;;;;;;;3.00;2.70;;;;;;;20.13;47.85;99063.70;;;;-59
2020/12/08 15:43:02;;;;;;;3.15;2.74;;;;;;;20.14;47.83;99068.80;;;;-61
2020/12/08 15:46:03;;;;;;;4.07;2.70;;;;;;;20.14;47.77;99069.45;;;;-57
2020/12/08 15:49:02;;;;;;;4.15;2.91;;;;;;;20.16;47.80;99079.33;;;;-52
2020/12/08 15:52:02;;;;;;;3.07;2.54;;;;;;;20.18;47.83;99084.59;;;;-57
2020/12/08 15:55:02;;;;;;;3.01;2.59;;;;;;;20.19;47.74;99091.48;;;;-52
2020/12/08 15:58:02;;;;;;;3.09;2.79;;;;;;;20.19;47.58;99088.64;;;;-58
2020/12/08 16:01:02;;;;;;;5.89;2.61;;;;;;;20.18;47.59;99098.41;;;;-50
2020/12/08 16:04:02;;;;;;;5.95;2.62;;;;;;;20.17;47.62;99098.19;;;;-52
2020/12/08 16:07:02;;;;;;;3.29;2.50;;;;;;;20.18;47.70;99101.09;;;;-58
2020/12/08 16:10:02;;;;;;;4.27;2.80;;;;;;;20.22;47.93;99106.08;;;;-57
2020/12/08 16:13:02;;;;;;;4.29;3.06;;;;;;;20.21;47.81;99113.66;;;;-62
2020/12/08 16:16:02;;;;;;;3.32;2.68;;;;;;;20.24;47.76;99115.38;;;;-57
2020/12/08 16:19:02;;;;;;;3.13;2.83;;;;;;;20.25;47.75;99118.77;;;;-58
2020/12/08 16:22:02;;;;;;;3.01;2.71;;;;;;;20.27;47.80;99120.69;;;;-59
2020/12/08 16:25:02;;;;;;;2.94;2.64;;;;;;;20.28;47.76;99122.46;;;;-51
2020/12/08 16:28:03;;;;;;;3.69;2.59;;;;;;;20.31;47.81;99122.75;;;;-54
2020/12/08 16:31:03;;;;;;;4.48;2.83;;;;;;;20.32;47.78;99121.91;;;;-56
2020/12/08 16:34:02;;;;;;;4.24;2.65;;;;;;;20.31;47.74;99119.33;;;;-53
2020/12/08 16:37:02;;;;;;;3.05;2.73;;;;;;;20.31;47.74;99119.88;;;;-58
2020/12/08 16:40:02;;;;;;;3.77;2.74;;;;;;;20.32;47.78;99125.41;;;;-62
2020/12/08 16:43:02;;;;;;;6.53;3.07;;;;;;;20.33;47.71;99129.88;;;;-59
2020/12/08 16:46:02;;;;;;;6.14;2.69;;;;;;;20.33;47.64;99129.04;;;;-52
2020/12/08 16:49:02;;;;;;;3.90;2.70;;;;;;;20.34;47.71;99134.09;;;;-52
2020/12/08 16:52:02;;;;;;;3.11;2.69;;;;;;;20.34;47.74;99142.13;;;;-52
2020/12/08 16:55:03;;;;;;;4.11;2.91;;;;;;;20.35;47.71;99143.66;;;;-52